Time;durP1;ratioP1;P1;durP2;ratioP2;P2;SDS_P1;SDS_P2;PMS_P1;PMS_P2;Temp;Humidity;BMP_temperature;BMP_pressure;BME280_temperature;BME280_humidity;BME280_pressure;Samples;Min_cycle;Max_cycle;Signal;HPM_P1;HPM_P2
2021/11/26 00:00:08;;;;;;;;;;;6.30;99.90;;;;;;5007937;28;20040;-71
2021/11/26 00:02:34;;;;;;;;;;;6.20;99.90;;;;;;5008519;28;20401;-69
2021/11/26 00:05:02;;;;;;;;;;;6.00;99.90;;;;;;5008528;28;19987;-71
2021/11/26 00:07:27;;;;;;;;;;;6.00;99.90;;;;;;5008324;28;19959;-70
2021/11/26 00:09:52;;;;;;;;;;;5.90;99.90;;;;;;5012274;28;19921;-70
2021/11/26 00:12:18;;;;;;;;;;;5.90;99.90;;;;;;5028455;28;19973;-70
2021/11/26 00:17:19;;;;;;;;;;;5.80;99.90;;;;;;5007428;28;19913;-71
2021/11/26 00:19:46;;;;;;;;;;;5.80;99.90;;;;;;5007567;28;19968;-72
2021/11/26 00:22:11;;;;;;;;;;;5.90;99.90;;;;;;5007031;28;19909;-71
2021/11/26 00:24:37;;;;;;;;;;;5.80;99.90;;;;;;5007666;28;19917;-72
2021/11/26 00:27:03;;;;;;;;;;;5.80;99.90;;;;;;5007750;28;20378;-71
2021/11/26 00:29:28;;;;;;;;;;;5.80;99.90;;;;;;5007969;28;19925;-71
2021/11/26 00:31:53;;;;;;;;;;;5.80;99.90;;;;;;5008008;28;19921;-71
2021/11/26 00:34:19;;;;;;;;;;;5.80;99.90;;;;;;5008174;28;20307;-73
2021/11/26 00:36:44;;;;;;;;;;;5.80;99.90;;;;;;5007766;28;19913;-71
2021/11/26 00:39:10;;;;;;;;;;;5.80;99.90;;;;;;5025920;28;19935;-72
2021/11/26 00:41:36;;;;;;;;;;;5.80;99.90;;;;;;5008772;28;19918;-69
2021/11/26 00:44:02;;;;;;;;;;;5.80;99.90;;;;;;5007457;28;19913;-71
2021/11/26 00:46:27;;;;;;;;;;;5.80;99.90;;;;;;5007864;28;19956;-70
2021/11/26 00:48:53;;;;;;;;;;;5.80;99.90;;;;;;5018245;28;19968;-70
2021/11/26 00:51:18;;;;;;;;;;;5.80;99.90;;;;;;5017401;28;20321;-71
2021/11/26 00:53:44;;;;;;;;;;;5.90;99.90;;;;;;5027950;28;20275;-72
2021/11/26 00:56:09;;;;;;;;;;;5.90;99.90;;;;;;5008205;28;19914;-71
2021/11/26 00:58:35;;;;;;;;;;;5.90;99.90;;;;;;5008360;28;19952;-71
2021/11/26 01:01:00;;;;;;;;;;;6.00;99.90;;;;;;5022836;28;19935;-71
2021/11/26 01:03:26;;;;;;;;;;;6.10;99.90;;;;;;5006605;28;19980;-70
2021/11/26 01:05:52;;;;;;;;;;;6.00;99.90;;;;;;5010331;28;19935;-71
2021/11/26 01:08:18;;;;;;;;;;;6.10;99.90;;;;;;5028458;28;19920;-69
2021/11/26 01:10:44;;;;;;;;;;;6.10;99.90;;;;;;5028912;28;20374;-70
2021/11/26 01:13:09;;;;;;;;;;;6.10;99.90;;;;;;5028897;28;20092;-69
2021/11/26 01:15:36;;;;;;;;;;;6.10;99.90;;;;;;5028712;28;19948;-70
2021/11/26 01:18:02;;;;;;;;;;;6.10;99.90;;;;;;5044715;28;20250;-71
2021/11/26 01:20:29;;;;;;;;;;;6.00;99.90;;;;;;5029547;28;19909;-71
2021/11/26 01:22:55;;;;;;;;;;;6.00;99.90;;;;;;5028518;28;19913;-70
2021/11/26 01:25:21;;;;;;;;;;;6.10;99.90;;;;;;5028169;28;19956;-70
2021/11/26 01:27:47;;;;;;;;;;;6.10;99.90;;;;;;5027567;28;19971;-70
2021/11/26 01:30:37;;;;;;;;;;;6.20;99.90;;;;;;5023526;28;19916;-70
2021/11/26 01:33:01;;;;;;;;;;;6.30;99.90;;;;;;5023935;28;19909;-68
2021/11/26 01:35:27;;;;;;;;;;;6.30;99.90;;;;;;5030855;28;19909;-70
2021/11/26 01:37:53;;;;;;;;;;;6.20;99.90;;;;;;5030834;28;19967;-68
2021/11/26 01:40:19;;;;;;;;;;;6.30;99.90;;;;;;5016970;28;19909;-69
2021/11/26 01:42:46;;;;;;;;;;;6.20;99.90;;;;;;5011403;28;19910;-68
2021/11/26 01:45:11;;;;;;;;;;;6.10;99.90;;;;;;5011162;28;19960;-69
2021/11/26 01:47:37;;;;;;;;;;;6.00;99.90;;;;;;5036897;28;20439;-68
2021/11/26 01:50:04;;;;;;;;;;;5.90;99.90;;;;;;5010545;28;20320;-69
2021/11/26 01:52:29;;;;;;;;;;;5.90;99.90;;;;;;5025328;28;19910;-68
2021/11/26 01:54:55;;;;;;;;;;;5.80;99.90;;;;;;5010944;28;19914;-72
2021/11/26 01:57:20;;;;;;;;;;;5.80;99.90;;;;;;5011674;28;19916;-68
2021/11/26 01:59:50;;;;;;;;;;;5.70;99.90;;;;;;5011134;28;20130;-67
2021/11/26 02:02:16;;;;;;;;;;;5.70;99.90;;;;;;5010373;28;19913;-69
2021/11/26 02:04:41;;;;;;;;;;;5.70;99.90;;;;;;5011044;28;19925;-69
2021/11/26 02:07:07;;;;;;;;;;;5.70;99.90;;;;;;5016201;28;20022;-69
2021/11/26 02:09:32;;;;;;;;;;;5.80;99.90;;;;;;5011184;28;19991;-65
2021/11/26 02:11:58;;;;;;;;;;;6.00;99.90;;;;;;5026120;28;19914;-64
2021/11/26 02:14:23;;;;;;;;;;;5.80;99.90;;;;;;5009595;28;19928;-66
2021/11/26 02:16:49;;;;;;;;;;;5.70;99.90;;;;;;5009693;28;19980;-63
2021/11/26 02:19:14;;;;;;;;;;;5.70;99.90;;;;;;5009657;28;19917;-66
2021/11/26 02:21:41;;;;;;;;;;;5.80;99.90;;;;;;5010590;28;19913;-64
2021/11/26 02:24:06;;;;;;;;;;;5.90;99.90;;;;;;5010490;28;19920;-64
2021/11/26 02:26:36;;;;;;;;;;;5.90;99.90;;;;;;5018901;28;19909;-66
2021/11/26 02:29:01;;;;;;;;;;;5.80;99.90;;;;;;5012546;28;19921;-64
2021/11/26 02:31:27;;;;;;;;;;;5.90;99.90;;;;;;5009972;28;19909;-65
2021/11/26 02:33:52;;;;;;;;;;;6.00;99.90;;;;;;5009267;28;19918;-65
2021/11/26 02:36:18;;;;;;;;;;;6.00;99.90;;;;;;5013529;28;20282;-64
2021/11/26 02:38:43;;;;;;;;;;;6.00;99.90;;;;;;5014551;28;19921;-64
2021/11/26 02:41:09;;;;;;;;;;;6.00;99.90;;;;;;5009147;28;20370;-64
2021/11/26 02:43:34;;;;;;;;;;;6.00;99.90;;;;;;5009622;28;19922;-64
2021/11/26 02:46:00;;;;;;;;;;;6.00;99.90;;;;;;5009659;28;19920;-64
2021/11/26 02:48:25;;;;;;;;;;;6.00;99.90;;;;;;5008772;28;19914;-64
2021/11/26 02:50:51;;;;;;;;;;;5.90;99.90;;;;;;5009412;28;19921;-63
2021/11/26 02:53:16;;;;;;;;;;;5.70;99.90;;;;;;5023933;28;20404;-64
2021/11/26 02:55:42;;;;;;;;;;;5.50;99.90;;;;;;5024136;28;20422;-66
2021/11/26 02:58:08;;;;;;;;;;;5.60;99.90;;;;;;5009403;28;19971;-61
2021/11/26 03:00:34;;;;;;;;;;;5.60;99.90;;;;;;5009070;28;20267;-61
2021/11/26 03:03:00;;;;;;;;;;;5.50;99.90;;;;;;5008779;28;19917;-62
2021/11/26 03:05:25;;;;;;;;;;;5.60;99.90;;;;;;5026609;28;19921;-63
2021/11/26 03:07:52;;;;;;;;;;;5.60;99.90;;;;;;5015075;28;20350;-60
2021/11/26 03:10:19;;;;;;;;;;;5.70;99.90;;;;;;5016240;28;19920;-64
2021/11/26 03:12:46;;;;;;;;;;;5.70;99.90;;;;;;5015904;28;20040;-61
2021/11/26 03:15:11;;;;;;;;;;;5.70;99.90;;;;;;5010050;28;20213;-62
2021/11/26 03:17:37;;;;;;;;;;;5.70;99.90;;;;;;5008516;28;20005;-63
2021/11/26 03:20:03;;;;;;;;;;;5.70;99.90;;;;;;5009177;28;20305;-62
2021/11/26 03:22:28;;;;;;;;;;;5.60;99.90;;;;;;5024438;28;19910;-62
2021/11/26 03:24:54;;;;;;;;;;;5.60;99.90;;;;;;5009022;28;19914;-61
2021/11/26 03:27:19;;;;;;;;;;;5.50;99.90;;;;;;5023658;28;19917;-61
2021/11/26 03:29:45;;;;;;;;;;;5.50;99.90;;;;;;5008336;28;19919;-62
2021/11/26 03:32:11;;;;;;;;;;;5.50;99.90;;;;;;5009102;28;19920;-63
2021/11/26 03:34:36;;;;;;;;;;;5.60;99.90;;;;;;5008952;28;19910;-63
2021/11/26 03:37:02;;;;;;;;;;;5.60;99.90;;;;;;5009087;28;20370;-63
2021/11/26 03:39:27;;;;;;;;;;;5.50;99.90;;;;;;5042127;28;20346;-63
2021/11/26 03:41:53;;;;;;;;;;;5.50;99.90;;;;;;5028478;28;19955;-64
2021/11/26 03:44:18;;;;;;;;;;;5.40;99.90;;;;;;5028250;28;20180;-65
2021/11/26 03:46:43;;;;;;;;;;;5.40;99.90;;;;;;5033256;28;20394;-68
2021/11/26 03:49:09;;;;;;;;;;;5.50;99.90;;;;;;5008779;28;19910;-67
2021/11/26 03:51:35;;;;;;;;;;;5.50;99.90;;;;;;5020590;28;19910;-66
2021/11/26 03:54:00;;;;;;;;;;;5.40;99.90;;;;;;5027591;28;19913;-67
2021/11/26 03:56:26;;;;;;;;;;;5.30;99.90;;;;;;5028238;28;20570;-68
2021/11/26 03:58:51;;;;;;;;;;;5.30;99.90;;;;;;5028390;28;19909;-69
2021/11/26 04:01:16;;;;;;;;;;;5.30;99.90;;;;;;5028109;28;19952;-69
2021/11/26 04:03:42;;;;;;;;;;;5.30;99.90;;;;;;5020208;28;19924;-69
2021/11/26 04:06:07;;;;;;;;;;;5.40;99.90;;;;;;5019116;28;19916;-69
2021/11/26 04:08:33;;;;;;;;;;;5.30;99.90;;;;;;5007576;28;19926;-68
2021/11/26 04:10:58;;;;;;;;;;;5.30;99.90;;;;;;5008659;28;19959;-70
2021/11/26 04:13:24;;;;;;;;;;;5.40;99.90;;;;;;5007873;28;20238;-70
2021/11/26 04:15:49;;;;;;;;;;;5.40;99.90;;;;;;5008414;28;19913;-70
2021/11/26 04:18:15;;;;;;;;;;;5.40;99.90;;;;;;5008294;28;19917;-70
2021/11/26 04:20:43;;;;;;;;;;;5.40;99.90;;;;;;5013503;28;19909;-69
2021/11/26 04:23:09;;;;;;;;;;;5.40;99.90;;;;;;5015946;28;19909;-69
2021/11/26 04:25:35;;;;;;;;;;;5.40;99.90;;;;;;5011615;28;19975;-69
2021/11/26 04:28:00;;;;;;;;;;;5.40;99.90;;;;;;5027914;28;19916;-69
2021/11/26 04:30:26;;;;;;;;;;;5.50;99.90;;;;;;5027803;28;20364;-70
2021/11/26 04:32:52;;;;;;;;;;;5.60;99.90;;;;;;5012073;28;19909;-70
2021/11/26 04:35:18;;;;;;;;;;;5.70;99.90;;;;;;5007745;28;19956;-70
2021/11/26 04:37:43;;;;;;;;;;;5.60;99.90;;;;;;5012881;28;19909;-70
2021/11/26 04:40:11;;;;;;;;;;;5.60;99.90;;;;;;5043077;28;19913;-70
2021/11/26 04:42:37;;;;;;;;;;;5.60;99.90;;;;;;5029248;28;20357;-70
2021/11/26 04:45:03;;;;;;;;;;;5.70;99.90;;;;;;5026517;28;20364;-69
2021/11/26 04:47:29;;;;;;;;;;;5.60;99.90;;;;;;5020889;28;20357;-69
2021/11/26 04:49:54;;;;;;;;;;;5.60;99.90;;;;;;5008100;28;19924;-69
2021/11/26 04:52:19;;;;;;;;;;;5.60;99.90;;;;;;5007647;28;20020;-70
2021/11/26 04:54:45;;;;;;;;;;;5.50;99.90;;;;;;5006959;28;19920;-71
2021/11/26 04:57:10;;;;;;;;;;;5.60;99.90;;;;;;5006913;28;19920;-71
2021/11/26 04:59:36;;;;;;;;;;;5.50;99.90;;;;;;5004890;28;19942;-70
2021/11/26 05:02:01;;;;;;;;;;;5.50;99.90;;;;;;5007384;28;20198;-69
2021/11/26 05:04:27;;;;;;;;;;;5.50;99.90;;;;;;5010882;28;19924;-70
2021/11/26 05:06:52;;;;;;;;;;;5.40;99.90;;;;;;5013137;28;19913;-69
2021/11/26 05:09:18;;;;;;;;;;;5.40;99.90;;;;;;5009900;28;19917;-70
2021/11/26 05:11:44;;;;;;;;;;;5.40;99.90;;;;;;5013379;28;19909;-69
2021/11/26 05:14:10;;;;;;;;;;;5.40;99.90;;;;;;5013081;28;19955;-71
2021/11/26 05:16:35;;;;;;;;;;;5.40;99.90;;;;;;5009714;28;19922;-70
2021/11/26 05:19:01;;;;;;;;;;;5.40;99.90;;;;;;5008264;28;19924;-70
2021/11/26 05:21:26;;;;;;;;;;;5.30;99.90;;;;;;5008475;28;20344;-70
2021/11/26 05:23:52;;;;;;;;;;;5.30;99.90;;;;;;5010045;28;19913;-70
2021/11/26 05:26:18;;;;;;;;;;;5.40;99.90;;;;;;5022367;28;19923;-68
2021/11/26 05:28:43;;;;;;;;;;;5.40;99.90;;;;;;5010852;28;19918;-70
2021/11/26 05:31:09;;;;;;;;;;;5.30;99.90;;;;;;5011661;28;20075;-69
2021/11/26 05:33:35;;;;;;;;;;;5.30;99.90;;;;;;5000614;28;19916;-70
2021/11/26 05:36:00;;;;;;;;;;;5.40;99.90;;;;;;4991841;28;19932;-69
2021/11/26 05:38:26;;;;;;;;;;;5.30;99.90;;;;;;5012647;28;20422;-68
2021/11/26 05:40:52;;;;;;;;;;;5.30;99.90;;;;;;5042774;28;19917;-67
2021/11/26 05:43:18;;;;;;;;;;;5.30;99.90;;;;;;5022641;28;19919;-68
2021/11/26 05:45:44;;;;;;;;;;;5.20;99.90;;;;;;5008904;28;20013;-69
2021/11/26 05:48:09;;;;;;;;;;;5.20;99.90;;;;;;5006295;28;19917;-68
2021/11/26 05:50:35;;;;;;;;;;;5.30;99.90;;;;;;5010562;28;19909;-69
2021/11/26 05:53:00;;;;;;;;;;;5.20;99.90;;;;;;5010909;28;20064;-68
2021/11/26 05:55:27;;;;;;;;;;;5.30;99.90;;;;;;5011517;28;19910;-68
2021/11/26 05:57:54;;;;;;;;;;;5.40;99.90;;;;;;5012335;28;19968;-68
2021/11/26 06:00:22;;;;;;;;;;;5.40;99.90;;;;;;5013710;28;20477;-67
2021/11/26 06:02:48;;;;;;;;;;;5.20;99.90;;;;;;5011838;28;20386;-68
2021/11/26 06:05:13;;;;;;;;;;;5.20;99.90;;;;;;5016938;28;19924;-68
2021/11/26 06:07:39;;;;;;;;;;;5.10;99.90;;;;;;5033806;28;19936;-67
2021/11/26 06:10:06;;;;;;;;;;;5.10;99.90;;;;;;5030893;28;20734;-68
2021/11/26 06:12:31;;;;;;;;;;;5.10;99.90;;;;;;5030725;28;19917;-69
2021/11/26 06:14:57;;;;;;;;;;;5.10;99.90;;;;;;5029927;28;19909;-67
2021/11/26 06:17:22;;;;;;;;;;;5.20;99.90;;;;;;5045466;28;20285;-69
2021/11/26 06:19:48;;;;;;;;;;;5.20;99.90;;;;;;5011987;28;19937;-68
2021/11/26 06:22:14;;;;;;;;;;;5.20;99.90;;;;;;5004728;28;20396;-67
2021/11/26 06:24:39;;;;;;;;;;;5.20;99.90;;;;;;5023709;28;20023;-67
2021/11/26 06:27:05;;;;;;;;;;;5.20;99.90;;;;;;5009534;28;19984;-67
2021/11/26 06:29:31;;;;;;;;;;;5.20;99.90;;;;;;5007277;28;19940;-67
2021/11/26 06:31:56;;;;;;;;;;;5.20;99.90;;;;;;5007714;28;19929;-68
2021/11/26 06:34:21;;;;;;;;;;;5.10;99.90;;;;;;5008414;28;20259;-68
2021/11/26 06:36:47;;;;;;;;;;;5.10;99.90;;;;;;5010703;28;19914;-67
2021/11/26 06:39:12;;;;;;;;;;;5.20;99.90;;;;;;5015914;28;20444;-68
2021/11/26 06:41:38;;;;;;;;;;;5.10;99.90;;;;;;5010877;28;19917;-68
2021/11/26 06:44:04;;;;;;;;;;;5.10;99.90;;;;;;5008692;28;19909;-67
2021/11/26 06:46:29;;;;;;;;;;;5.00;99.90;;;;;;5012047;28;20199;-67
2021/11/26 06:48:55;;;;;;;;;;;5.00;99.90;;;;;;5010216;28;20469;-69
2021/11/26 06:51:20;;;;;;;;;;;5.00;99.90;;;;;;5009363;28;19913;-67
2021/11/26 06:53:46;;;;;;;;;;;5.00;99.90;;;;;;5010302;28;20004;-68
2021/11/26 06:56:11;;;;;;;;;;;5.00;99.90;;;;;;5009084;28;19913;-68
2021/11/26 06:58:37;;;;;;;;;;;5.00;99.90;;;;;;5010718;28;19910;-68
2021/11/26 07:01:02;;;;;;;;;;;5.00;99.90;;;;;;5010809;28;19997;-67
2021/11/26 07:03:28;;;;;;;;;;;5.00;99.90;;;;;;5009060;28;19920;-67
2021/11/26 07:05:53;;;;;;;;;;;5.10;99.90;;;;;;5015118;28;20341;-67
2021/11/26 07:08:19;;;;;;;;;;;5.00;99.90;;;;;;5011541;28;19922;-66
2021/11/26 07:10:45;;;;;;;;;;;5.00;99.90;;;;;;5008063;28;19917;-66
2021/11/26 07:13:10;;;;;;;;;;;5.00;99.90;;;;;;5008212;28;20039;-66
2021/11/26 07:15:36;;;;;;;;;;;5.00;99.90;;;;;;5010518;28;19963;-67
2021/11/26 07:18:02;;;;;;;;;;;5.00;99.90;;;;;;5008957;28;20286;-67
2021/11/26 07:20:27;;;;;;;;;;;5.00;99.90;;;;;;5012620;28;19920;-66
2021/11/26 07:22:53;;;;;;;;;;;5.00;99.90;;;;;;5014531;28;19909;-66
2021/11/26 07:25:18;;;;;;;;;;;5.00;99.90;;;;;;5010273;28;19917;-66
2021/11/26 07:27:44;;;;;;;;;;;5.00;99.90;;;;;;5008026;28;19917;-66
2021/11/26 07:30:10;;;;;;;;;;;5.00;99.90;;;;;;5009692;28;19915;-67
2021/11/26 07:32:36;;;;;;;;;;;5.10;99.90;;;;;;5010683;28;19909;-67
2021/11/26 07:35:02;;;;;;;;;;;5.10;99.90;;;;;;5007848;28;19956;-67
2021/11/26 07:37:27;;;;;;;;;;;5.10;99.90;;;;;;5007380;28;19910;-67
2021/11/26 07:39:53;;;;;;;;;;;5.20;99.90;;;;;;5007883;28;20384;-67
2021/11/26 07:42:18;;;;;;;;;;;5.10;99.90;;;;;;5007859;28;19921;-68
2021/11/26 07:44:44;;;;;;;;;;;5.00;99.90;;;;;;5007623;28;20427;-67
2021/11/26 07:47:12;;;;;;;;;;;5.00;99.90;;;;;;5011513;28;19909;-66
2021/11/26 07:49:38;;;;;;;;;;;4.90;99.90;;;;;;5012877;28;19932;-66
2021/11/26 07:52:04;;;;;;;;;;;4.90;99.90;;;;;;5011497;28;19913;-67
2021/11/26 07:54:29;;;;;;;;;;;4.90;99.90;;;;;;5010773;28;20356;-66
2021/11/26 07:56:55;;;;;;;;;;;4.90;99.90;;;;;;5014318;28;19982;-68
2021/11/26 07:59:21;;;;;;;;;;;5.00;99.90;;;;;;5015189;28;19913;-67
2021/11/26 08:01:47;;;;;;;;;;;5.00;99.90;;;;;;5047304;28;19999;-66
2021/11/26 08:04:15;;;;;;;;;;;5.00;99.90;;;;;;5037239;28;19917;-65
2021/11/26 08:06:46;;;;;;;;;;;4.90;99.90;;;;;;5026440;28;20305;-68
2021/11/26 08:09:15;;;;;;;;;;;4.80;99.90;;;;;;5013329;28;20287;-68
2021/11/26 08:11:41;;;;;;;;;;;4.80;99.90;;;;;;5019485;28;19914;-67
2021/11/26 08:14:07;;;;;;;;;;;4.80;99.90;;;;;;5009930;28;19936;-68
2021/11/26 08:16:33;;;;;;;;;;;4.80;99.90;;;;;;5009290;28;20289;-66
2021/11/26 08:18:59;;;;;;;;;;;4.80;99.90;;;;;;5016096;28;20627;-67
2021/11/26 08:21:24;;;;;;;;;;;4.90;99.90;;;;;;5008982;28;19964;-66
2021/11/26 08:23:50;;;;;;;;;;;4.90;99.90;;;;;;4999217;28;19924;-66
2021/11/26 08:26:15;;;;;;;;;;;4.80;99.90;;;;;;5009313;28;19920;-65
2021/11/26 08:28:41;;;;;;;;;;;4.80;99.90;;;;;;5008448;28;19917;-70
2021/11/26 08:31:06;;;;;;;;;;;4.80;99.90;;;;;;5008635;28;19910;-67
2021/11/26 08:33:32;;;;;;;;;;;4.80;99.90;;;;;;5023482;28;20334;-65
2021/11/26 08:35:57;;;;;;;;;;;4.90;99.90;;;;;;5009004;28;20098;-66
2021/11/26 08:38:24;;;;;;;;;;;4.90;99.90;;;;;;5005272;28;20103;-66
2021/11/26 08:40:49;;;;;;;;;;;4.90;99.90;;;;;;5006727;28;20381;-66
2021/11/26 08:43:15;;;;;;;;;;;4.90;99.90;;;;;;5011286;28;19925;-66
2021/11/26 08:45:41;;;;;;;;;;;4.90;99.90;;;;;;5017059;28;19925;-65
2021/11/26 08:48:06;;;;;;;;;;;4.90;99.90;;;;;;5023308;28;19921;-65
2021/11/26 08:50:34;;;;;;;;;;;4.90;99.90;;;;;;5028109;28;19909;-65
2021/11/26 08:53:02;;;;;;;;;;;4.90;99.90;;;;;;4997720;28;20000;-64
2021/11/26 08:55:27;;;;;;;;;;;4.80;99.90;;;;;;5012404;28;19909;-65
2021/11/26 08:57:54;;;;;;;;;;;4.80;99.90;;;;;;5005952;28;19967;-65
2021/11/26 09:00:22;;;;;;;;;;;4.90;99.90;;;;;;5003343;28;20374;-65
2021/11/26 09:02:48;;;;;;;;;;;4.80;99.90;;;;;;5001120;28;19987;-66
2021/11/26 09:05:13;;;;;;;;;;;4.90;99.90;;;;;;5006882;28;20053;-65
2021/11/26 09:07:39;;;;;;;;;;;4.90;99.90;;;;;;5008784;28;19914;-65
2021/11/26 09:10:04;;;;;;;;;;;4.90;99.90;;;;;;5004746;28;19913;-66
2021/11/26 09:12:30;;;;;;;;;;;4.90;99.90;;;;;;5005515;28;19921;-65
2021/11/26 09:14:56;;;;;;;;;;;4.90;99.90;;;;;;5003567;28;20082;-66
2021/11/26 09:17:21;;;;;;;;;;;4.90;99.90;;;;;;5009757;28;20324;-67
2021/11/26 09:19:47;;;;;;;;;;;5.00;99.90;;;;;;5005488;28;19917;-67
2021/11/26 09:22:12;;;;;;;;;;;5.00;99.90;;;;;;5020073;28;20314;-66
2021/11/26 09:24:38;;;;;;;;;;;5.00;99.90;;;;;;5007316;28;19941;-66
2021/11/26 09:27:03;;;;;;;;;;;5.10;99.90;;;;;;5005018;28;20417;-67
2021/11/26 09:29:29;;;;;;;;;;;5.10;99.90;;;;;;5017671;28;19910;-67
2021/11/26 09:31:54;;;;;;;;;;;5.10;99.90;;;;;;5025423;28;19914;-65
2021/11/26 09:34:20;;;;;;;;;;;5.10;99.90;;;;;;5011134;28;20062;-66
2021/11/26 09:36:45;;;;;;;;;;;5.10;99.90;;;;;;5009574;28;19909;-65
2021/11/26 09:39:11;;;;;;;;;;;5.10;99.90;;;;;;5008153;28;19914;-65
2021/11/26 09:41:36;;;;;;;;;;;5.10;99.90;;;;;;5008063;28;20278;-64
2021/11/26 09:44:03;;;;;;;;;;;5.10;99.90;;;;;;5006887;28;19910;-66
2021/11/26 09:46:32;;;;;;;;;;;5.10;99.90;;;;;;5007537;28;20374;-66
2021/11/26 09:48:58;;;;;;;;;;;5.10;99.90;;;;;;5008467;28;19914;-67
2021/11/26 09:51:24;;;;;;;;;;;5.20;99.90;;;;;;5011451;28;19987;-66
2021/11/26 09:53:49;;;;;;;;;;;5.20;99.90;;;;;;5011556;28;19916;-66
2021/11/26 09:56:15;;;;;;;;;;;5.30;99.90;;;;;;5011572;28;19941;-65
2021/11/26 09:58:40;;;;;;;;;;;5.30;99.90;;;;;;5009505;28;20425;-66
2021/11/26 10:01:07;;;;;;;;;;;5.40;99.90;;;;;;5019603;28;19920;-65
2021/11/26 10:03:41;;;;;;;;;;;5.40;99.90;;;;;;5009766;28;20374;-67
2021/11/26 10:06:20;;;;;;;;;;;5.40;99.90;;;;;;5010662;28;19963;-66
2021/11/26 10:08:55;;;;;;;;;;;5.30;99.90;;;;;;5010394;28;20503;-67
2021/11/26 10:11:25;;;;;;;;;;;5.30;99.90;;;;;;5011250;28;20366;-66
2021/11/26 10:13:51;;;;;;;;;;;5.30;99.90;;;;;;5013934;28;19909;-69
2021/11/26 10:16:16;;;;;;;;;;;5.30;99.90;;;;;;5011835;28;20277;-66
2021/11/26 10:18:45;;;;;;;;;;;5.20;99.90;;;;;;5011119;28;19952;-66
2021/11/26 10:21:12;;;;;;;;;;;5.30;99.90;;;;;;5010324;28;20410;-66
2021/11/26 10:23:45;;;;;;;;;;;5.30;99.90;;;;;;5010129;28;19996;-67
2021/11/26 10:26:22;;;;;;;;;;;5.20;99.90;;;;;;5006515;28;19945;-66
2021/11/26 10:28:50;;;;;;;;;;;5.20;99.90;;;;;;5012899;28;19975;-66
2021/11/26 10:31:24;;;;;;;;;;;5.20;99.90;;;;;;5004963;28;19913;-65
2021/11/26 10:33:51;;;;;;;;;;;5.30;99.90;;;;;;5008711;28;20004;-66
2021/11/26 10:36:17;;;;;;;;;;;5.20;99.90;;;;;;5021415;28;19910;-68
2021/11/26 10:38:42;;;;;;;;;;;5.20;99.90;;;;;;5030629;28;19916;-66
2021/11/26 10:41:10;;;;;;;;;;;5.10;99.90;;;;;;5009081;28;20039;-64
2021/11/26 10:48:47;;;;;;;;;;;5.10;99.90;;;;;;5014063;28;19944;-66
2021/11/26 10:56:53;;;;;;;;;;;5.10;99.90;;;;;;5012558;28;19916;-69
2021/11/26 10:59:26;;;;;;;;;;;5.20;99.90;;;;;;5010972;28;19941;-66
2021/11/26 11:01:52;;;;;;;;;;;5.20;99.90;;;;;;5009526;28;19913;-66
2021/11/26 11:04:18;;;;;;;;;;;5.20;99.90;;;;;;5010375;28;19927;-67
2021/11/26 11:06:44;;;;;;;;;;;5.20;99.90;;;;;;5018762;28;19909;-65
2021/11/26 11:09:11;;;;;;;;;;;5.20;99.90;;;;;;5029723;28;19935;-66
2021/11/26 11:11:37;;;;;;;;;;;5.20;99.90;;;;;;5035737;28;19909;-66
2021/11/26 11:14:12;;;;;;;;;;;5.20;99.90;;;;;;5039506;28;19920;-67
2021/11/26 11:17:04;;;;;;;;;;;5.20;99.90;;;;;;5034732;28;19916;-67
2021/11/26 11:19:30;;;;;;;;;;;5.20;99.90;;;;;;5027787;28;19963;-64
2021/11/26 11:21:56;;;;;;;;;;;5.20;99.90;;;;;;5011191;28;19956;-67
2021/11/26 11:24:22;;;;;;;;;;;5.10;99.90;;;;;;5025791;28;20203;-66
2021/11/26 11:26:48;;;;;;;;;;;5.10;99.90;;;;;;5011754;28;19963;-69
2021/11/26 11:29:15;;;;;;;;;;;5.00;99.90;;;;;;5013535;28;19914;-67
2021/11/26 11:31:41;;;;;;;;;;;5.00;99.90;;;;;;5012750;28;19948;-68
2021/11/26 11:34:07;;;;;;;;;;;5.00;99.90;;;;;;5011469;28;20397;-68
2021/11/26 11:36:36;;;;;;;;;;;4.90;99.90;;;;;;5010793;28;19952;-67
2021/11/26 11:39:03;;;;;;;;;;;4.90;99.90;;;;;;5025450;28;20397;-67
2021/11/26 11:41:28;;;;;;;;;;;5.00;99.90;;;;;;5010460;28;19933;-68
2021/11/26 11:43:54;;;;;;;;;;;4.90;99.90;;;;;;5009801;28;19953;-67
2021/11/26 11:46:20;;;;;;;;;;;4.90;99.90;;;;;;5009619;28;19916;-68
2021/11/26 11:48:47;;;;;;;;;;;4.90;99.90;;;;;;5008928;28;20000;-66
2021/11/26 11:51:45;;;;;;;;;;;4.90;99.90;;;;;;5011294;28;19997;-68
2021/11/26 11:54:13;;;;;;;;;;;5.00;99.90;;;;;;4999237;28;19914;-67
2021/11/26 11:56:41;;;;;;;;;;;5.00;99.90;;;;;;5013253;28;20328;-70
2021/11/26 11:59:07;;;;;;;;;;;5.00;99.90;;;;;;5011302;28;19913;-66
2021/11/26 12:01:33;;;;;;;;;;;5.00;99.90;;;;;;5010089;28;20342;-70
2021/11/26 12:04:11;;;;;;;;;;;5.00;99.90;;;;;;5009948;28;19918;-68
2021/11/26 12:06:40;;;;;;;;;;;5.00;99.90;;;;;;5017316;28;20280;-67
2021/11/26 12:09:06;;;;;;;;;;;5.00;99.90;;;;;;5025376;28;19921;-66
2021/11/26 12:11:33;;;;;;;;;;;4.90;99.90;;;;;;5017618;28;20015;-65
2021/11/26 12:14:01;;;;;;;;;;;4.90;99.90;;;;;;5008720;28;20325;-66
2021/11/26 12:16:28;;;;;;;;;;;4.90;99.90;;;;;;5009886;28;19995;-68
2021/11/26 12:18:54;;;;;;;;;;;4.90;99.90;;;;;;5009250;28;20588;-65
2021/11/26 12:21:22;;;;;;;;;;;4.90;99.90;;;;;;5024727;28;19910;-68
2021/11/26 12:24:26;;;;;;;;;;;5.00;99.90;;;;;;5009092;28;19953;-66
2021/11/26 12:26:57;;;;;;;;;;;4.90;99.90;;;;;;4984168;28;20352;-68
2021/11/26 12:29:34;;;;;;;;;;;4.90;99.90;;;;;;5011682;28;20373;-69
2021/11/26 12:32:19;;;;;;;;;;;4.90;99.90;;;;;;5009012;28;19925;-67
2021/11/26 12:34:48;;;;;;;;;;;4.90;99.90;;;;;;5005914;28;19920;-66
2021/11/26 12:37:17;;;;;;;;;;;4.90;99.90;;;;;;5016037;28;20301;-67
2021/11/26 12:39:42;;;;;;;;;;;4.90;99.90;;;;;;5028032;28;20455;-69
2021/11/26 12:42:08;;;;;;;;;;;4.80;99.90;;;;;;5003207;28;19909;-69
2021/11/26 12:44:34;;;;;;;;;;;4.80;99.90;;;;;;5008037;28;19913;-66
2021/11/26 12:47:02;;;;;;;;;;;4.90;99.90;;;;;;5010523;28;19914;-70
2021/11/26 12:52:16;;;;;;;;;;;4.90;99.90;;;;;;4995087;28;19910;-68
2021/11/26 12:54:49;;;;;;;;;;;4.90;99.90;;;;;;5023013;28;19905;-67
2021/11/26 12:57:21;;;;;;;;;;;4.90;99.90;;;;;;5017521;28;19970;-70
2021/11/26 13:00:09;;;;;;;;;;;4.80;99.90;;;;;;5008803;28;20445;-68
2021/11/26 13:02:35;;;;;;;;;;;4.80;99.90;;;;;;5008522;28;20398;-69
2021/11/26 13:05:02;;;;;;;;;;;4.90;99.90;;;;;;5012814;28;19918;-67
2021/11/26 13:07:28;;;;;;;;;;;4.80;99.90;;;;;;5017482;28;20320;-65
2021/11/26 13:09:58;;;;;;;;;;;4.80;99.90;;;;;;5009677;28;20400;-66
2021/11/26 13:12:37;;;;;;;;;;;4.80;99.90;;;;;;5009008;28;19914;-68
2021/11/26 13:15:07;;;;;;;;;;;4.80;99.90;;;;;;5008869;28;19999;-69
2021/11/26 13:17:35;;;;;;;;;;;4.80;99.90;;;;;;5008958;28;19921;-71
2021/11/26 13:20:04;;;;;;;;;;;4.80;99.90;;;;;;5007030;28;19910;-69
2021/11/26 13:22:37;;;;;;;;;;;4.80;99.90;;;;;;5007239;28;19910;-69
2021/11/26 13:25:03;;;;;;;;;;;4.80;99.90;;;;;;5009974;28;20386;-70
2021/11/26 13:27:28;;;;;;;;;;;4.80;99.90;;;;;;5011893;28;19914;-70
2021/11/26 13:29:54;;;;;;;;;;;4.80;99.90;;;;;;5012469;28;19916;-71
2021/11/26 13:32:20;;;;;;;;;;;4.80;99.90;;;;;;5011991;28;19920;-70
2021/11/26 13:34:53;;;;;;;;;;;4.80;99.90;;;;;;5010788;28;19918;-71
2021/11/26 13:37:19;;;;;;;;;;;4.80;99.90;;;;;;5011341;28;19938;-69
2021/11/26 13:39:53;;;;;;;;;;;4.80;99.90;;;;;;5013406;28;19913;-72
2021/11/26 13:42:18;;;;;;;;;;;4.80;99.90;;;;;;5022563;28;19917;-70
2021/11/26 13:44:45;;;;;;;;;;;4.70;99.90;;;;;;5013450;28;20389;-69
2021/11/26 13:47:11;;;;;;;;;;;4.80;99.90;;;;;;5022967;28;19909;-67
2021/11/26 13:49:37;;;;;;;;;;;4.80;99.90;;;;;;5033877;28;20421;-71
2021/11/26 13:52:04;;;;;;;;;;;4.80;99.90;;;;;;5034729;28;19915;-71
2021/11/26 13:54:37;;;;;;;;;;;4.80;99.90;;;;;;5034170;28;20412;-70
2021/11/26 13:57:03;;;;;;;;;;;4.80;99.90;;;;;;5036324;28;19963;-72
2021/11/26 13:59:30;;;;;;;;;;;4.80;99.90;;;;;;5032182;28;20330;-72
2021/11/26 14:02:12;;;;;;;;;;;4.80;99.90;;;;;;5032045;28;20086;-68
2021/11/26 14:04:38;;;;;;;;;;;4.80;99.90;;;;;;5032085;28;19924;-73
2021/11/26 14:07:15;;;;;;;;;;;4.80;99.90;;;;;;5020716;28;19910;-67
2021/11/26 14:09:42;;;;;;;;;;;4.90;99.90;;;;;;5015597;28;19917;-73
2021/11/26 14:12:33;;;;;;;;;;;4.90;99.90;;;;;;5032589;28;20369;-69
2021/11/26 14:14:59;;;;;;;;;;;4.90;99.90;;;;;;5028721;28;19909;-70
2021/11/26 14:17:25;;;;;;;;;;;4.90;99.90;;;;;;5031935;28;20459;-72
2021/11/26 14:19:57;;;;;;;;;;;4.90;99.90;;;;;;5029668;28;20029;-72
2021/11/26 14:22:30;;;;;;;;;;;4.90;99.90;;;;;;5011881;28;19960;-66
2021/11/26 14:25:04;;;;;;;;;;;4.90;99.90;;;;;;5010547;28;19978;-66
2021/11/26 14:27:31;;;;;;;;;;;4.90;99.90;;;;;;5010801;28;19921;-62
2021/11/26 14:30:03;;;;;;;;;;;4.90;99.90;;;;;;5010496;28;19928;-63
2021/11/26 14:32:29;;;;;;;;;;;4.90;99.90;;;;;;5010400;28;19932;-71
2021/11/26 14:35:11;;;;;;;;;;;4.80;99.90;;;;;;5010687;28;20209;-63
2021/11/26 14:37:38;;;;;;;;;;;4.80;99.90;;;;;;5006385;28;19919;-64
2021/11/26 14:40:16;;;;;;;;;;;4.90;99.90;;;;;;5012651;28;20452;-63
2021/11/26 14:42:41;;;;;;;;;;;4.90;99.90;;;;;;5008939;28;19921;-63
2021/11/26 14:45:07;;;;;;;;;;;4.90;99.90;;;;;;5008331;28;19913;-61